sensor_id;sensor_type;location;lat;lon;timestamp;pressure;altitude;pressure_sealevel;temperature;humidity
55486;BME280;49383;-25.924;28.194;2023-02-20T00:00:33;84471.06;;;21.41;55.34
55486;BME280;49383;-25.924;28.194;2023-02-20T00:02:56;84472.60;;;21.51;52.53
55486;BME280;49383;-25.924;28.194;2023-02-20T00:05:21;84468.27;;;21.37;50.85
55486;BME280;49383;-25.924;28.194;2023-02-20T00:07:47;84465.10;;;21.55;50.30
55486;BME280;49383;-25.924;28.194;2023-02-20T00:10:15;84460.81;;;21.76;52.31
55486;BME280;49383;-25.924;28.194;2023-02-20T00:12:39;84462.42;;;21.09;53.81
55486;BME280;49383;-25.924;28.194;2023-02-20T00:15:04;84460.11;;;21.35;54.42
55486;BME280;49383;-25.924;28.194;2023-02-20T00:17:28;84461.65;;;21.44;54.83
55486;BME280;49383;-25.924;28.194;2023-02-20T00:19:53;84464.40;;;21.26;55.19
55486;BME280;49383;-25.924;28.194;2023-02-20T00:22:21;84463.83;;;21.57;52.28
55486;BME280;49383;-25.924;28.194;2023-02-20T00:24:43;84464.22;;;21.49;50.44
55486;BME280;49383;-25.924;28.194;2023-02-20T00:27:08;84461.10;;;21.79;51.31
55486;BME280;49383;-25.924;28.194;2023-02-20T00:29:33;84456.33;;;21.86;52.76
55486;BME280;49383;-25.924;28.194;2023-02-20T00:31:59;84457.09;;;21.28;53.87
55486;BME280;49383;-25.924;28.194;2023-02-20T00:34:27;84459.63;;;21.83;54.33
55486;BME280;49383;-25.924;28.194;2023-02-20T00:36:49;84462.35;;;21.73;55.18
55486;BME280;49383;-25.924;28.194;2023-02-20T00:39:14;84459.61;;;21.20;54.53
55486;BME280;49383;-25.924;28.194;2023-02-20T00:41:39;84457.34;;;21.20;51.92
55486;BME280;49383;-25.924;28.194;2023-02-20T00:44:04;84452.90;;;21.55;50.98
55486;BME280;49383;-25.924;28.194;2023-02-20T00:46:29;84449.70;;;21.71;52.51
55486;BME280;49383;-25.924;28.194;2023-02-20T00:48:54;84447.09;;;21.37;53.52
55486;BME280;49383;-25.924;28.194;2023-02-20T00:51:20;84451.29;;;21.62;54.12
55486;BME280;49383;-25.924;28.194;2023-02-20T00:53:44;84454.61;;;21.61;54.75
55486;BME280;49383;-25.924;28.194;2023-02-20T00:56:09;84457.87;;;21.53;54.96
55486;BME280;49383;-25.924;28.194;2023-02-20T00:58:34;84459.70;;;21.43;52.09
55486;BME280;49383;-25.924;28.194;2023-02-20T01:00:59;84459.12;;;21.59;50.41
55486;BME280;49383;-25.924;28.194;2023-02-20T01:03:24;84459.21;;;21.65;51.37
55486;BME280;49383;-25.924;28.194;2023-02-20T01:05:49;84458.61;;;21.53;53.04
55486;BME280;49383;-25.924;28.194;2023-02-20T01:08:15;84457.68;;;21.37;53.70
55486;BME280;49383;-25.924;28.194;2023-02-20T01:10:40;84457.33;;;21.80;54.61
55486;BME280;49383;-25.924;28.194;2023-02-20T01:13:05;84456.83;;;21.82;54.90
55486;BME280;49383;-25.924;28.194;2023-02-20T01:15:31;84452.02;;;21.22;55.63
55486;BME280;49383;-25.924;28.194;2023-02-20T01:17:56;84446.98;;;21.63;53.95
55486;BME280;49383;-25.924;28.194;2023-02-20T01:20:22;84444.72;;;21.62;50.59
55486;BME280;49383;-25.924;28.194;2023-02-20T01:22:48;84439.86;;;21.56;51.81
55486;BME280;49383;-25.924;28.194;2023-02-20T01:25:13;84438.78;;;21.40;53.32
55486;BME280;49383;-25.924;28.194;2023-02-20T01:27:38;84438.38;;;21.46;53.95
55486;BME280;49383;-25.924;28.194;2023-02-20T01:30:03;84440.62;;;21.63;54.72
55486;BME280;49383;-25.924;28.194;2023-02-20T01:32:28;84441.55;;;21.62;55.13
55486;BME280;49383;-25.924;28.194;2023-02-20T01:34:54;84440.62;;;21.45;55.46
55486;BME280;49383;-25.924;28.194;2023-02-20T01:37:19;84438.40;;;21.35;52.14
55486;BME280;49383;-25.924;28.194;2023-02-20T01:39:47;84437.43;;;21.61;50.93
55486;BME280;49383;-25.924;28.194;2023-02-20T01:42:12;84439.00;;;21.80;52.40
55486;BME280;49383;-25.924;28.194;2023-02-20T01:44:35;84436.08;;;21.10;54.24
55486;BME280;49383;-25.924;28.194;2023-02-20T01:47:00;84438.04;;;21.31;54.48
55486;BME280;49383;-25.924;28.194;2023-02-20T01:49:29;84442.89;;;21.50;55.05
55486;BME280;49383;-25.924;28.194;2023-02-20T01:51:54;84444.08;;;21.47;55.57
55486;BME280;49383;-25.924;28.194;2023-02-20T01:54:17;84441.36;;;21.76;56.00
55486;BME280;49383;-25.924;28.194;2023-02-20T01:56:40;84440.12;;;21.40;56.46
55486;BME280;49383;-25.924;28.194;2023-02-20T01:59:06;84442.82;;;21.32;54.38
55486;BME280;49383;-25.924;28.194;2023-02-20T02:01:32;84444.91;;;21.49;52.54
55486;BME280;49383;-25.924;28.194;2023-02-20T02:04:00;84446.78;;;21.79;51.50
55486;BME280;49383;-25.924;28.194;2023-02-20T02:06:23;84449.47;;;21.82;52.88
55486;BME280;49383;-25.924;28.194;2023-02-20T02:08:48;84455.43;;;21.56;54.24
55486;BME280;49383;-25.924;28.194;2023-02-20T02:11:15;84456.19;;;21.26;55.00
55486;BME280;49383;-25.924;28.194;2023-02-20T02:13:38;84457.66;;;21.77;55.47
55486;BME280;49383;-25.924;28.194;2023-02-20T02:16:13;84457.62;;;21.44;55.94
55486;BME280;49383;-25.924;28.194;2023-02-20T02:18:41;84458.35;;;21.72;56.33
55486;BME280;49383;-25.924;28.194;2023-02-20T02:25:52;84463.56;;;21.56;51.45
55486;BME280;49383;-25.924;28.194;2023-02-20T02:28:18;84463.92;;;21.52;52.69
55486;BME280;49383;-25.924;28.194;2023-02-20T02:33:06;84467.43;;;21.18;55.52
55486;BME280;49383;-25.924;28.194;2023-02-20T02:37:52;84470.94;;;21.58;56.12
55486;BME280;49383;-25.924;28.194;2023-02-20T02:40:18;84472.76;;;21.31;56.39
55486;BME280;49383;-25.924;28.194;2023-02-20T02:42:42;84473.74;;;21.47;56.37
55486;BME280;49383;-25.924;28.194;2023-02-20T02:45:08;84471.34;;;21.36;53.97
55486;BME280;49383;-25.924;28.194;2023-02-20T02:47:34;84472.15;;;21.50;51.57
55486;BME280;49383;-25.924;28.194;2023-02-20T02:49:57;84476.53;;;21.83;52.46
55486;BME280;49383;-25.924;28.194;2023-02-20T02:52:20;84480.44;;;21.72;53.27
55486;BME280;49383;-25.924;28.194;2023-02-20T02:54:44;84483.06;;;21.63;54.62
55486;BME280;49383;-25.924;28.194;2023-02-20T02:59:35;84484.42;;;21.26;56.34
55486;BME280;49383;-25.924;28.194;2023-02-20T03:02:03;84484.59;;;21.27;56.73
55486;BME280;49383;-25.924;28.194;2023-02-20T03:04:27;84487.85;;;21.64;54.17
55486;BME280;49383;-25.924;28.194;2023-02-20T03:06:53;84494.12;;;21.72;50.98
55486;BME280;49383;-25.924;28.194;2023-02-20T03:09:19;84502.00;;;21.82;52.02
55486;BME280;49383;-25.924;28.194;2023-02-20T03:11:41;84505.88;;;21.74;53.15
55486;BME280;49383;-25.924;28.194;2023-02-20T03:14:09;84504.39;;;21.19;54.68
55486;BME280;49383;-25.924;28.194;2023-02-20T03:16:36;84503.69;;;21.24;55.52
55486;BME280;49383;-25.924;28.194;2023-02-20T03:18:59;84503.50;;;21.35;55.78
55486;BME280;49383;-25.924;28.194;2023-02-20T03:21:22;84506.21;;;20.93;56.59
55486;BME280;49383;-25.924;28.194;2023-02-20T03:23:51;84508.09;;;21.42;53.28
55486;BME280;49383;-25.924;28.194;2023-02-20T03:26:15;84511.15;;;21.66;50.18
55486;BME280;49383;-25.924;28.194;2023-02-20T03:28:40;84516.64;;;21.80;51.23
55486;BME280;49383;-25.924;28.194;2023-02-20T03:31:06;84512.77;;;21.52;52.88
55486;BME280;49383;-25.924;28.194;2023-02-20T03:33:33;84513.20;;;21.43;54.51
55486;BME280;49383;-25.924;28.194;2023-02-20T03:35:56;84512.72;;;21.59;54.82
55486;BME280;49383;-25.924;28.194;2023-02-20T03:38:21;84511.18;;;21.28;55.46
55486;BME280;49383;-25.924;28.194;2023-02-20T03:40:45;84514.30;;;21.47;55.98
55486;BME280;49383;-25.924;28.194;2023-02-20T03:43:14;84517.13;;;21.07;56.67
55486;BME280;49383;-25.924;28.194;2023-02-20T03:45:37;84514.41;;;21.02;57.09
55486;BME280;49383;-25.924;28.194;2023-02-20T03:48:03;84516.30;;;21.22;55.01
55486;BME280;49383;-25.924;28.194;2023-02-20T03:50:26;84517.67;;;21.36;52.36
55486;BME280;49383;-25.924;28.194;2023-02-20T03:52:51;84522.66;;;21.72;51.81
55486;BME280;49383;-25.924;28.194;2023-02-20T03:55:16;84526.58;;;21.80;53.29
55486;BME280;49383;-25.924;28.194;2023-02-20T03:57:45;84528.45;;;21.32;55.03
55486;BME280;49383;-25.924;28.194;2023-02-20T04:00:11;84529.29;;;21.17;55.94
55486;BME280;49383;-25.924;28.194;2023-02-20T04:02:35;84530.31;;;21.12;55.73
55486;BME280;49383;-25.924;28.194;2023-02-20T04:05:00;84533.15;;;21.49;55.90
55486;BME280;49383;-25.924;28.194;2023-02-20T04:07:24;84531.59;;;21.33;53.89
55486;BME280;49383;-25.924;28.194;2023-02-20T04:09:47;84533.70;;;21.58;50.75
55486;BME280;49383;-25.924;28.194;2023-02-20T04:12:18;84533.48;;;21.61;51.66
55486;BME280;49383;-25.924;28.194;2023-02-20T04:14:39;84536.46;;;21.47;53.55
55486;BME280;49383;-25.924;28.194;2023-02-20T04:17:09;84540.21;;;21.47;54.44
55486;BME280;49383;-25.924;28.194;2023-02-20T04:19:29;84543.49;;;21.49;55.03
55486;BME280;49383;-25.924;28.194;2023-02-20T04:21:55;84548.15;;;21.26;55.48
55486;BME280;49383;-25.924;28.194;2023-02-20T04:24:22;84553.73;;;21.36;56.14
55486;BME280;49383;-25.924;28.194;2023-02-20T04:26:44;84555.58;;;21.24;56.69
55486;BME280;49383;-25.924;28.194;2023-02-20T04:29:09;84554.19;;;21.51;52.34
55486;BME280;49383;-25.924;28.194;2023-02-20T04:31:34;84558.00;;;21.72;50.87
55486;BME280;49383;-25.924;28.194;2023-02-20T04:34:00;84560.28;;;21.97;49.02
55486;BME280;49383;-25.924;28.194;2023-02-20T04:36:26;84561.55;;;21.59;48.34
55486;BME280;49383;-25.924;28.194;2023-02-20T04:38:51;84556.10;;;21.58;47.80
55486;BME280;49383;-25.924;28.194;2023-02-20T04:41:16;84551.46;;;21.74;48.95
55486;BME280;49383;-25.924;28.194;2023-02-20T04:43:41;84546.82;;;21.80;50.22
55486;BME280;49383;-25.924;28.194;2023-02-20T04:46:06;84544.78;;;20.98;52.47
55486;BME280;49383;-25.924;28.194;2023-02-20T04:48:31;84548.26;;;21.62;53.35
55486;BME280;49383;-25.924;28.194;2023-02-20T04:50:57;84551.01;;;21.36;54.49
55486;BME280;49383;-25.924;28.194;2023-02-20T04:53:22;84548.99;;;21.43;55.27
55486;BME280;49383;-25.924;28.194;2023-02-20T04:55:47;84546.76;;;21.20;53.35
55486;BME280;49383;-25.924;28.194;2023-02-20T04:58:12;84549.48;;;21.60;50.32
55486;BME280;49383;-25.924;28.194;2023-02-20T05:00:37;84556.44;;;21.44;50.50
55486;BME280;49383;-25.924;28.194;2023-02-20T05:03:02;84560.34;;;21.52;52.14
55486;BME280;49383;-25.924;28.194;2023-02-20T05:05:29;84561.98;;;20.97;53.75
55486;BME280;49383;-25.924;28.194;2023-02-20T05:07:55;84566.49;;;21.26;54.51
55486;BME280;49383;-25.924;28.194;2023-02-20T05:10:20;84577.03;;;21.17;55.33
55486;BME280;49383;-25.924;28.194;2023-02-20T05:12:44;84581.49;;;21.25;51.59
55486;BME280;49383;-25.924;28.194;2023-02-20T05:15:11;84586.56;;;21.47;49.60
55486;BME280;49383;-25.924;28.194;2023-02-20T05:17:35;84588.41;;;21.39;51.06
55486;BME280;49383;-25.924;28.194;2023-02-20T05:19:59;84593.42;;;21.30;52.93
55486;BME280;49383;-25.924;28.194;2023-02-20T05:22:25;84599.38;;;21.49;54.02
55486;BME280;49383;-25.924;28.194;2023-02-20T05:24:51;84603.74;;;21.39;54.81
55486;BME280;49383;-25.924;28.194;2023-02-20T05:27:18;84609.36;;;21.16;55.03
55486;BME280;49383;-25.924;28.194;2023-02-20T05:29:45;84613.72;;;21.22;52.23
55486;BME280;49383;-25.924;28.194;2023-02-20T05:32:07;84618.73;;;21.40;49.80
55486;BME280;49383;-25.924;28.194;2023-02-20T05:34:32;84619.72;;;21.82;50.22
55486;BME280;49383;-25.924;28.194;2023-02-20T05:36:57;84618.13;;;21.68;52.04
55486;BME280;49383;-25.924;28.194;2023-02-20T05:39:23;84613.05;;;21.30;53.25
55486;BME280;49383;-25.924;28.194;2023-02-20T05:41:48;84606.99;;;21.35;53.75
55486;BME280;49383;-25.924;28.194;2023-02-20T05:44:13;84602.12;;;21.40;51.19
55486;BME280;49383;-25.924;28.194;2023-02-20T05:46:40;84598.34;;;21.52;49.67
55486;BME280;49383;-25.924;28.194;2023-02-20T05:49:03;84594.96;;;21.61;48.64
55486;BME280;49383;-25.924;28.194;2023-02-20T05:51:29;84593.04;;;21.54;47.65
55486;BME280;49383;-25.924;28.194;2023-02-20T05:53:54;84599.12;;;21.79;47.03
55486;BME280;49383;-25.924;28.194;2023-02-20T05:56:19;84599.88;;;22.01;45.37
55486;BME280;49383;-25.924;28.194;2023-02-20T05:58:45;84602.39;;;21.93;47.04
55486;BME280;49383;-25.924;28.194;2023-02-20T06:01:16;84604.14;;;22.09;48.78
55486;BME280;49383;-25.924;28.194;2023-02-20T06:03:35;84606.82;;;22.11;49.92
55486;BME280;49383;-25.924;28.194;2023-02-20T06:06:01;84618.01;;;21.84;50.19
55486;BME280;49383;-25.924;28.194;2023-02-20T06:08:26;84625.47;;;21.46;50.89
55486;BME280;49383;-25.924;28.194;2023-02-20T06:10:51;84627.78;;;21.90;49.84
55486;BME280;49383;-25.924;28.194;2023-02-20T06:13:16;84632.03;;;21.85;49.10
55486;BME280;49383;-25.924;28.194;2023-02-20T06:15:42;84632.57;;;21.92;48.72
55486;BME280;49383;-25.924;28.194;2023-02-20T06:18:08;84628.55;;;21.99;48.34
55486;BME280;49383;-25.924;28.194;2023-02-20T06:20:33;84622.99;;;22.00;48.14
55486;BME280;49383;-25.924;28.194;2023-02-20T06:22:58;84624.66;;;22.53;47.66
55486;BME280;49383;-25.924;28.194;2023-02-20T06:25:24;84626.20;;;22.11;46.88
55486;BME280;49383;-25.924;28.194;2023-02-20T06:27:49;84626.31;;;22.26;47.55
55486;BME280;49383;-25.924;28.194;2023-02-20T06:30:14;84621.82;;;21.40;48.03
55486;BME280;49383;-25.924;28.194;2023-02-20T06:32:39;84620.79;;;21.31;48.10
55486;BME280;49383;-25.924;28.194;2023-02-20T06:35:05;84619.34;;;21.88;48.09
55486;BME280;49383;-25.924;28.194;2023-02-20T06:37:29;84620.45;;;21.67;47.52
55486;BME280;49383;-25.924;28.194;2023-02-20T06:39:54;84621.40;;;21.84;46.00
55486;BME280;49383;-25.924;28.194;2023-02-20T06:42:19;84622.29;;;22.33;45.18
55486;BME280;49383;-25.924;28.194;2023-02-20T06:44:44;84623.62;;;22.19;44.46
55486;BME280;49383;-25.924;28.194;2023-02-20T06:47:10;84625.10;;;22.05;44.37
55486;BME280;49383;-25.924;28.194;2023-02-20T06:49:35;84626.54;;;22.25;46.07
55486;BME280;49383;-25.924;28.194;2023-02-20T06:52:00;84631.94;;;22.13;46.98
55486;BME280;49383;-25.924;28.194;2023-02-20T06:54:24;84633.69;;;21.76;48.74
55486;BME280;49383;-25.924;28.194;2023-02-20T06:56:50;84631.31;;;21.96;50.20
55486;BME280;49383;-25.924;28.194;2023-02-20T06:59:15;84631.57;;;22.13;50.83
55486;BME280;49383;-25.924;28.194;2023-02-20T07:01:42;84633.18;;;22.29;51.35
55486;BME280;49383;-25.924;28.194;2023-02-20T07:04:13;84630.71;;;22.16;51.68
55486;BME280;49383;-25.924;28.194;2023-02-20T07:06:32;84627.01;;;22.25;49.79
55486;BME280;49383;-25.924;28.194;2023-02-20T07:08:57;84622.51;;;22.18;48.44
55486;BME280;49383;-25.924;28.194;2023-02-20T07:11:23;84616.50;;;22.18;48.46
55486;BME280;49383;-25.924;28.194;2023-02-20T07:13:47;84613.97;;;22.43;49.43
55486;BME280;49383;-25.924;28.194;2023-02-20T07:16:12;84614.50;;;22.15;50.37
55486;BME280;49383;-25.924;28.194;2023-02-20T07:18:37;84615.46;;;22.08;49.59
55486;BME280;49383;-25.924;28.194;2023-02-20T07:21:04;84618.82;;;21.99;46.86
55486;BME280;49383;-25.924;28.194;2023-02-20T07:23:28;84616.10;;;22.18;45.80
55486;BME280;49383;-25.924;28.194;2023-02-20T07:25:54;84614.13;;;22.37;45.14
55486;BME280;49383;-25.924;28.194;2023-02-20T07:28:19;84614.46;;;22.48;44.58
55486;BME280;49383;-25.924;28.194;2023-02-20T07:30:45;84610.82;;;22.62;44.02
55486;BME280;49383;-25.924;28.194;2023-02-20T07:33:10;84607.89;;;22.44;43.94
55486;BME280;49383;-25.924;28.194;2023-02-20T07:35:35;84607.04;;;22.41;43.81
55486;BME280;49383;-25.924;28.194;2023-02-20T07:38:01;84605.76;;;22.46;43.54
55486;BME280;49383;-25.924;28.194;2023-02-20T07:40:26;84602.02;;;22.64;43.11
55486;BME280;49383;-25.924;28.194;2023-02-20T07:42:51;84596.23;;;22.49;42.80
55486;BME280;49383;-25.924;28.194;2023-02-20T07:45:17;84594.93;;;22.51;43.19
55486;BME280;49383;-25.924;28.194;2023-02-20T07:47:43;84592.62;;;22.51;42.06
55486;BME280;49383;-25.924;28.194;2023-02-20T07:50:09;84589.91;;;22.64;41.93
55486;BME280;49383;-25.924;28.194;2023-02-20T07:52:34;84587.19;;;22.72;41.34
55486;BME280;49383;-25.924;28.194;2023-02-20T07:54:59;84583.34;;;22.73;41.09
55486;BME280;49383;-25.924;28.194;2023-02-20T07:57:25;84585.26;;;22.68;41.28
55486;BME280;49383;-25.924;28.194;2023-02-20T07:59:50;84578.23;;;22.86;41.17
55486;BME280;49383;-25.924;28.194;2023-02-20T08:02:16;84576.03;;;22.71;41.25
55486;BME280;49383;-25.924;28.194;2023-02-20T08:04:42;84574.43;;;22.93;41.38
55486;BME280;49383;-25.924;28.194;2023-02-20T08:07:08;84571.54;;;23.05;41.39
55486;BME280;49383;-25.924;28.194;2023-02-20T08:09:34;84568.64;;;22.50;41.42
55486;BME280;49383;-25.924;28.194;2023-02-20T08:12:00;84565.91;;;23.13;41.25
55486;BME280;49383;-25.924;28.194;2023-02-20T08:14:25;84561.88;;;23.11;41.35
55486;BME280;49383;-25.924;28.194;2023-02-20T08:16:51;84558.98;;;23.08;41.30
55486;BME280;49383;-25.924;28.194;2023-02-20T08:19:17;84557.88;;;23.07;41.33
55486;BME280;49383;-25.924;28.194;2023-02-20T08:21:42;84555.64;;;22.94;41.55
55486;BME280;49383;-25.924;28.194;2023-02-20T08:24:07;84558.94;;;23.01;41.38
55486;BME280;49383;-25.924;28.194;2023-02-20T08:26:33;84558.43;;;23.13;41.59
55486;BME280;49383;-25.924;28.194;2023-02-20T08:28:58;84556.27;;;23.06;43.43
55486;BME280;49383;-25.924;28.194;2023-02-20T08:31:23;84562.58;;;23.45;45.06
55486;BME280;49383;-25.924;28.194;2023-02-20T08:33:49;84559.01;;;23.24;44.53
55486;BME280;49383;-25.924;28.194;2023-02-20T08:36:14;84563.16;;;22.74;42.95
55486;BME280;49383;-25.924;28.194;2023-02-20T08:38:40;84563.29;;;22.94;44.61
55486;BME280;49383;-25.924;28.194;2023-02-20T08:41:08;84563.03;;;23.41;45.77
55486;BME280;49383;-25.924;28.194;2023-02-20T08:43:32;84561.99;;;23.28;46.99
55486;BME280;49383;-25.924;28.194;2023-02-20T08:45:57;84561.19;;;23.36;47.87
55486;BME280;49383;-25.924;28.194;2023-02-20T08:48:23;84556.80;;;23.55;48.43
55486;BME280;49383;-25.924;28.194;2023-02-20T08:50:49;84556.59;;;23.05;49.26
55486;BME280;49383;-25.924;28.194;2023-02-20T08:53:15;84557.01;;;23.09;49.22
55486;BME280;49383;-25.924;28.194;2023-02-20T08:55:41;84557.93;;;23.05;46.53
55486;BME280;49383;-25.924;28.194;2023-02-20T08:58:06;84556.89;;;23.21;47.50
55486;BME280;49383;-25.924;28.194;2023-02-20T09:00:32;84562.11;;;23.27;48.48
55486;BME280;49383;-25.924;28.194;2023-02-20T09:02:57;84558.49;;;23.14;49.50
55486;BME280;49383;-25.924;28.194;2023-02-20T09:05:23;84560.13;;;23.05;47.15
55486;BME280;49383;-25.924;28.194;2023-02-20T09:07:49;84563.41;;;23.42;45.80
55486;BME280;49383;-25.924;28.194;2023-02-20T09:10:16;84562.25;;;23.14;47.44
55486;BME280;49383;-25.924;28.194;2023-02-20T09:12:41;84561.81;;;23.16;48.47
55486;BME280;49383;-25.924;28.194;2023-02-20T09:15:09;84563.06;;;23.44;49.22
55486;BME280;49383;-25.924;28.194;2023-02-20T09:17:32;84565.96;;;23.02;48.29
55486;BME280;49383;-25.924;28.194;2023-02-20T09:19:57;84566.85;;;23.69;45.93
55486;BME280;49383;-25.924;28.194;2023-02-20T09:22:22;84562.33;;;23.37;48.05
55486;BME280;49383;-25.924;28.194;2023-02-20T09:24:47;84564.01;;;23.19;49.05
55486;BME280;49383;-25.924;28.194;2023-02-20T09:27:13;84565.61;;;23.48;49.54
55486;BME280;49383;-25.924;28.194;2023-02-20T09:29:38;84561.61;;;23.09;47.58
55486;BME280;49383;-25.924;28.194;2023-02-20T09:32:03;84560.18;;;23.23;46.37
55486;BME280;49383;-25.924;28.194;2023-02-20T09:34:28;84558.73;;;23.20;48.17
55486;BME280;49383;-25.924;28.194;2023-02-20T09:36:52;84560.64;;;23.28;49.03
55486;BME280;49383;-25.924;28.194;2023-02-20T09:39:18;84560.23;;;23.72;46.07
55486;BME280;49383;-25.924;28.194;2023-02-20T09:41:56;84564.23;;;23.75;46.08
55486;BME280;49383;-25.924;28.194;2023-02-20T09:44:14;84559.71;;;23.20;47.59
55486;BME280;49383;-25.924;28.194;2023-02-20T09:46:35;84558.29;;;23.02;48.50
55486;BME280;49383;-25.924;28.194;2023-02-20T09:49:07;84558.81;;;23.05;48.11
55486;BME280;49383;-25.924;28.194;2023-02-20T09:51:29;84554.57;;;23.22;45.69
55486;BME280;49383;-25.924;28.194;2023-02-20T09:53:56;84559.35;;;23.62;46.80
55486;BME280;49383;-25.924;28.194;2023-02-20T09:56:20;84552.93;;;23.51;47.93
55486;BME280;49383;-25.924;28.194;2023-02-20T09:58:43;84551.25;;;23.65;48.86
55486;BME280;49383;-25.924;28.194;2023-02-20T10:01:06;84550.97;;;23.62;48.97
55486;BME280;49383;-25.924;28.194;2023-02-20T10:03:35;84546.84;;;22.94;47.61
55486;BME280;49383;-25.924;28.194;2023-02-20T10:05:56;84544.85;;;22.92;46.08
55486;BME280;49383;-25.924;28.194;2023-02-20T10:08:22;84543.01;;;23.76;45.64
55486;BME280;49383;-25.924;28.194;2023-02-20T10:10:50;84537.05;;;23.19;47.48
55486;BME280;49383;-25.924;28.194;2023-02-20T10:15:47;84526.58;;;23.61;48.95
55486;BME280;49383;-25.924;28.194;2023-02-20T10:18:15;84532.70;;;23.49;49.35
55486;BME280;49383;-25.924;28.194;2023-02-20T10:20:36;84535.02;;;23.72;50.00
55486;BME280;49383;-25.924;28.194;2023-02-20T10:22:59;84529.45;;;23.82;47.63
55486;BME280;49383;-25.924;28.194;2023-02-20T10:25:27;84523.76;;;23.92;46.62
55486;BME280;49383;-25.924;28.194;2023-02-20T10:27:52;84520.57;;;23.38;48.34
55486;BME280;49383;-25.924;28.194;2023-02-20T10:30:13;84517.63;;;23.44;49.14
55486;BME280;49383;-25.924;28.194;2023-02-20T10:32:41;84515.76;;;23.34;49.85
55486;BME280;49383;-25.924;28.194;2023-02-20T10:35:06;84512.32;;;23.31;49.89
55486;BME280;49383;-25.924;28.194;2023-02-20T10:37:33;84511.75;;;23.30;47.42
55486;BME280;49383;-25.924;28.194;2023-02-20T10:39:58;84511.24;;;23.02;47.66
55486;BME280;49383;-25.924;28.194;2023-02-20T10:42:24;84512.88;;;23.36;46.06
55486;BME280;49383;-25.924;28.194;2023-02-20T10:44:48;84512.03;;;23.50;45.27
55486;BME280;49383;-25.924;28.194;2023-02-20T10:47:15;84510.71;;;23.41;47.49
55486;BME280;49383;-25.924;28.194;2023-02-20T10:49:37;84508.94;;;23.37;48.59
55486;BME280;49383;-25.924;28.194;2023-02-20T10:52:03;84508.55;;;23.29;48.75
55486;BME280;49383;-25.924;28.194;2023-02-20T10:54:30;84508.54;;;23.05;49.24
55486;BME280;49383;-25.924;28.194;2023-02-20T10:56:55;84504.79;;;23.34;50.02
55486;BME280;49383;-25.924;28.194;2023-02-20T10:59:21;84502.06;;;23.48;50.31
55486;BME280;49383;-25.924;28.194;2023-02-20T11:01:43;84503.37;;;23.29;50.41
55486;BME280;49383;-25.924;28.194;2023-02-20T11:04:11;84502.57;;;23.49;50.88
55486;BME280;49383;-25.924;28.194;2023-02-20T11:06:37;84500.73;;;23.73;50.13
55486;BME280;49383;-25.924;28.194;2023-02-20T11:08:58;84493.93;;;23.47;47.03
55486;BME280;49383;-25.924;28.194;2023-02-20T11:11:28;84493.87;;;23.64;48.39
55486;BME280;49383;-25.924;28.194;2023-02-20T11:13:49;84491.25;;;23.60;49.61
55486;BME280;49383;-25.924;28.194;2023-02-20T11:16:21;84490.06;;;23.19;50.12
55486;BME280;49383;-25.924;28.194;2023-02-20T11:18:40;84487.48;;;23.20;50.59
55486;BME280;49383;-25.924;28.194;2023-02-20T11:21:05;84483.97;;;23.29;50.95
55486;BME280;49383;-25.924;28.194;2023-02-20T11:23:37;84479.24;;;23.56;51.22
55486;BME280;49383;-25.924;28.194;2023-02-20T11:28:23;84469.91;;;23.30;51.40
55486;BME280;49383;-25.924;28.194;2023-02-20T11:30:49;84470.42;;;23.47;48.62
55486;BME280;49383;-25.924;28.194;2023-02-20T11:33:15;84466.58;;;24.16;47.53
55486;BME280;49383;-25.924;28.194;2023-02-20T11:35:39;84467.48;;;23.60;49.36
55486;BME280;49383;-25.924;28.194;2023-02-20T11:40:31;84458.96;;;23.36;51.03
55486;BME280;49383;-25.924;28.194;2023-02-20T11:42:56;84444.32;;;23.56;51.58
55486;BME280;49383;-25.924;28.194;2023-02-20T11:45:24;84435.37;;;23.11;51.67
55486;BME280;49383;-25.924;28.194;2023-02-20T11:47:45;84429.05;;;23.23;51.73
55486;BME280;49383;-25.924;28.194;2023-02-20T11:50:14;84432.22;;;23.62;50.64
55486;BME280;49383;-25.924;28.194;2023-02-20T11:52:37;84429.43;;;23.38;47.65
55486;BME280;49383;-25.924;28.194;2023-02-20T11:55:09;84427.52;;;23.99;48.34
55486;BME280;49383;-25.924;28.194;2023-02-20T11:57:29;84431.95;;;23.62;49.77
55486;BME280;49383;-25.924;28.194;2023-02-20T12:02:25;84435.37;;;23.29;50.80
55486;BME280;49383;-25.924;28.194;2023-02-20T12:04:59;84434.48;;;23.46;50.91
55486;BME280;49383;-25.924;28.194;2023-02-20T12:07:21;84440.39;;;23.29;51.04
55486;BME280;49383;-25.924;28.194;2023-02-20T12:09:35;84448.51;;;23.74;51.27
55486;BME280;49383;-25.924;28.194;2023-02-20T12:12:00;84451.36;;;23.50;51.25
55486;BME280;49383;-25.924;28.194;2023-02-20T12:14:25;84444.02;;;24.09;47.76
55486;BME280;49383;-25.924;28.194;2023-02-20T12:17:03;84435.32;;;23.72;47.03
55486;BME280;49383;-25.924;28.194;2023-02-20T12:19:18;84424.08;;;23.65;48.74
55486;BME280;49383;-25.924;28.194;2023-02-20T12:21:51;84426.49;;;23.68;49.85
55486;BME280;49383;-25.924;28.194;2023-02-20T12:24:18;84428.88;;;23.41;50.39
55486;BME280;49383;-25.924;28.194;2023-02-20T12:26:43;84430.55;;;23.74;50.59
55486;BME280;49383;-25.924;28.194;2023-02-20T12:29:05;84433.57;;;23.48;51.19
55486;BME280;49383;-25.924;28.194;2023-02-20T12:31:31;84441.31;;;23.33;51.12
55486;BME280;49383;-25.924;28.194;2023-02-20T12:33:56;84448.71;;;23.83;49.25
55486;BME280;49383;-25.924;28.194;2023-02-20T12:36:23;84468.92;;;23.37;47.09
55486;BME280;49383;-25.924;28.194;2023-02-20T12:38:41;84518.64;;;23.80;47.84
55486;BME280;49383;-25.924;28.194;2023-02-20T12:41:14;84545.90;;;23.69;49.09
55486;BME280;49383;-25.924;28.194;2023-02-20T12:43:34;84542.03;;;23.40;49.93
55486;BME280;49383;-25.924;28.194;2023-02-20T12:46:00;84564.50;;;23.55;50.26
55486;BME280;49383;-25.924;28.194;2023-02-20T12:48:26;84591.53;;;23.51;50.37
55486;BME280;49383;-25.924;28.194;2023-02-20T12:50:52;84606.79;;;23.55;50.29